Time;durP1;ratioP1;P1;durP2;ratioP2;P2;SDS_P1;SDS_P2;PMS_P1;PMS_P2;Temp;Humidity;BMP_temperature;BMP_pressure;BME280_temperature;BME280_humidity;BME280_pressure;Samples;Min_cycle;Max_cycle;Signal;HPM_P1;HPM_P2
2023/01/20 00:00:29;;;;;;;49.00;19.17;;;-1.30;99.90;;;;;;5047964;28;20445;-63
2023/01/20 00:02:56;;;;;;;46.13;18.90;;;-1.30;99.90;;;;;;5047280;28;20128;-62
2023/01/20 00:05:21;;;;;;;47.78;20.20;;;-1.30;99.90;;;;;;5046524;28;20048;-62
2023/01/20 00:07:47;;;;;;;46.47;19.73;;;-1.30;99.90;;;;;;5048556;28;20037;-62
2023/01/20 00:10:12;;;;;;;49.30;20.17;;;-1.20;99.90;;;;;;5048998;28;20028;-62
2023/01/20 00:12:38;;;;;;;50.63;21.80;;;-1.20;99.90;;;;;;5045959;28;20036;-63
2023/01/20 00:15:05;;;;;;;49.53;20.50;;;-1.30;99.90;;;;;;5046392;28;20029;-63
2023/01/20 00:17:31;;;;;;;47.88;20.88;;;-1.30;99.90;;;;;;5047575;28;20428;-62
2023/01/20 00:19:56;;;;;;;49.20;20.60;;;-1.30;99.90;;;;;;5046815;28;20037;-63
2023/01/20 00:22:22;;;;;;;49.88;20.40;;;-1.20;99.90;;;;;;5047544;28;20040;-63
2023/01/20 00:24:48;;;;;;;46.70;19.90;;;-1.20;99.90;;;;;;5047755;28;20024;-63
2023/01/20 00:27:14;;;;;;;42.47;18.48;;;-1.20;99.90;;;;;;5047351;28;20029;-63
2023/01/20 00:29:43;;;;;;;42.78;17.63;;;-1.20;99.90;;;;;;5047352;28;20470;-63
2023/01/20 00:32:09;;;;;;;43.53;17.83;;;-1.20;99.90;;;;;;5047015;28;20029;-62
2023/01/20 00:34:35;;;;;;;44.63;18.58;;;-1.20;99.90;;;;;;5048619;28;20051;-62
2023/01/20 00:37:00;;;;;;;43.80;18.55;;;-1.10;99.90;;;;;;5044281;28;20525;-64
2023/01/20 00:39:26;;;;;;;41.25;17.65;;;-1.10;99.90;;;;;;5046759;28;20021;-63
2023/01/20 00:41:52;;;;;;;38.08;17.00;;;-1.10;99.90;;;;;;5046361;28;20562;-61
2023/01/20 00:44:18;;;;;;;38.45;18.02;;;-1.00;99.90;;;;;;5047581;28;20108;-63
2023/01/20 00:46:43;;;;;;;43.95;19.00;;;-1.10;99.90;;;;;;5044636;28;20108;-63
2023/01/20 00:49:10;;;;;;;46.67;18.92;;;-1.20;99.90;;;;;;5046184;28;20848;-63
2023/01/20 00:51:35;;;;;;;50.63;20.10;;;-1.30;99.90;;;;;;5046430;28;20040;-63
2023/01/20 00:54:01;;;;;;;43.53;18.42;;;-1.40;99.90;;;;;;5045535;28;20764;-63
2023/01/20 00:56:26;;;;;;;50.45;18.75;;;-1.30;99.90;;;;;;5048208;28;20131;-64
2023/01/20 00:58:54;;;;;;;46.28;19.75;;;-1.30;99.90;;;;;;5046382;28;20041;-63
2023/01/20 01:01:20;;;;;;;45.35;19.27;;;-1.30;99.90;;;;;;5044668;28;20041;-62
2023/01/20 01:03:46;;;;;;;48.95;19.50;;;-1.30;99.90;;;;;;5046127;28;20053;-63
2023/01/20 01:06:14;;;;;;;51.15;20.20;;;-1.30;99.90;;;;;;5046570;28;20064;-61
2023/01/20 01:08:40;;;;;;;45.45;19.30;;;-1.30;99.90;;;;;;5045696;28;20041;-63
2023/01/20 01:11:06;;;;;;;47.42;20.05;;;-1.30;99.90;;;;;;5046553;28;20040;-63
2023/01/20 01:13:32;;;;;;;44.53;18.02;;;-1.40;99.90;;;;;;5047344;28;20041;-63
2023/01/20 01:15:58;;;;;;;47.05;20.38;;;-1.40;99.90;;;;;;5045438;28;20032;-63
2023/01/20 01:18:24;;;;;;;46.38;19.58;;;-1.40;99.90;;;;;;5046317;28;20098;-62
2023/01/20 01:20:49;;;;;;;42.47;18.48;;;-1.30;99.90;;;;;;5047137;28;20037;-63
2023/01/20 01:23:15;;;;;;;45.38;18.95;;;-1.20;99.90;;;;;;5046442;28;20032;-64
2023/01/20 01:25:41;;;;;;;35.97;16.98;;;-1.20;99.90;;;;;;5045890;28;20029;-63
2023/01/20 01:28:06;;;;;;;43.13;18.10;;;-1.10;99.90;;;;;;5046028;28;20115;-63
2023/01/20 01:30:32;;;;;;;45.45;18.70;;;-1.10;99.90;;;;;;5044501;28;20409;-62
2023/01/20 01:32:58;;;;;;;43.38;18.40;;;-1.00;99.90;;;;;;5046074;28;20040;-64
2023/01/20 01:35:23;;;;;;;46.55;18.88;;;-1.00;99.90;;;;;;5046752;28;20029;-63
2023/01/20 01:37:49;;;;;;;43.58;19.15;;;-1.10;99.90;;;;;;5048731;28;20118;-62
2023/01/20 01:40:15;;;;;;;44.15;18.85;;;-1.10;99.90;;;;;;5048838;28;20502;-63
2023/01/20 01:42:41;;;;;;;42.30;18.02;;;-1.00;99.90;;;;;;5051110;28;20529;-62
2023/01/20 01:45:09;;;;;;;42.10;18.30;;;-1.00;99.90;;;;;;5048747;28;20652;-63
2023/01/20 01:47:37;;;;;;;47.05;19.00;;;-1.00;99.90;;;;;;5048523;28;20040;-63
2023/01/20 01:50:04;;;;;;;43.92;18.65;;;-1.00;99.90;;;;;;5049543;28;20037;-62
2023/01/20 01:52:31;;;;;;;43.10;18.70;;;-1.00;99.90;;;;;;5050777;28;20033;-62
2023/01/20 01:54:57;;;;;;;42.70;18.13;;;-0.90;99.90;;;;;;5048736;28;20098;-63
2023/01/20 01:57:23;;;;;;;41.78;17.90;;;-0.90;99.90;;;;;;5051420;28;20029;-62
2023/01/20 01:59:50;;;;;;;43.22;18.30;;;-0.80;99.90;;;;;;5050300;28;20021;-62
2023/01/20 02:02:15;;;;;;;43.22;17.10;;;-0.80;99.90;;;;;;5044963;28;20032;-63
2023/01/20 02:04:41;;;;;;;42.30;17.33;;;-0.80;99.90;;;;;;5050035;28;20082;-63
2023/01/20 02:07:18;;;;;;;43.10;18.33;;;-0.80;99.90;;;;;;5050068;28;20041;-62
2023/01/20 02:09:44;;;;;;;41.75;17.63;;;-0.90;99.90;;;;;;5049743;28;20385;-63
2023/01/20 02:12:16;;;;;;;44.08;18.42;;;-0.90;99.90;;;;;;5045821;28;20037;-63
2023/01/20 02:14:51;;;;;;;43.70;17.85;;;-1.00;99.90;;;;;;5048462;28;20032;-62
2023/01/20 02:17:41;;;;;;;45.17;18.65;;;-1.00;99.90;;;;;;5057823;28;20036;-63
2023/01/20 02:20:33;;;;;;;48.85;20.75;;;-1.00;99.90;;;;;;5048834;28;20138;-63
2023/01/20 02:23:36;;;;;;;47.83;19.73;;;-1.10;99.90;;;;;;5045480;28;20031;-63
2023/01/20 02:26:35;;;;;;;49.50;19.77;;;-1.00;99.90;;;;;;5045176;28;20044;-64
2023/01/20 02:29:13;;;;;;;50.47;21.20;;;-1.00;99.90;;;;;;5048670;28;20124;-63
2023/01/20 02:32:00;;;;;;;50.92;20.63;;;-0.90;99.90;;;;;;5042328;28;20363;-63
2023/01/20 02:34:44;;;;;;;47.25;20.40;;;-0.90;99.90;;;;;;5048952;28;20029;-63
2023/01/20 02:37:18;;;;;;;50.53;20.77;;;-0.90;99.90;;;;;;5048750;28;20044;-63
2023/01/20 02:39:52;;;;;;;49.60;20.63;;;-0.90;99.90;;;;;;5043654;28;20028;-62
2023/01/20 02:42:23;;;;;;;55.25;20.65;;;-0.90;99.90;;;;;;5048890;28;20049;-63
2023/01/20 02:44:56;;;;;;;46.17;20.88;;;-0.90;99.90;;;;;;5047216;28;20025;-63
2023/01/20 02:47:56;;;;;;;50.70;20.35;;;-0.90;99.90;;;;;;5048934;28;20029;-62
2023/01/20 02:50:30;;;;;;;50.72;19.75;;;-0.90;99.90;;;;;;5037777;28;20154;-62
2023/01/20 02:53:00;;;;;;;44.30;18.92;;;-0.80;99.90;;;;;;5050695;28;20056;-63
2023/01/20 02:55:42;;;;;;;52.53;20.73;;;-0.80;99.90;;;;;;5049609;28;20059;-63
2023/01/20 02:58:32;;;;;;;52.45;21.13;;;-0.80;99.90;;;;;;5048456;28;20071;-63
2023/01/20 03:01:05;;;;;;;52.53;21.02;;;-0.80;99.90;;;;;;5046595;28;20036;-63
2023/01/20 03:03:37;;;;;;;49.67;21.13;;;-0.80;99.90;;;;;;5048600;28;20040;-62
2023/01/20 03:06:06;;;;;;;49.90;21.40;;;-0.80;99.90;;;;;;5048611;28;20041;-63
2023/01/20 03:08:33;;;;;;;47.63;21.30;;;-0.90;99.90;;;;;;5048657;28;20047;-63
2023/01/20 03:11:06;;;;;;;49.30;20.50;;;-0.80;99.90;;;;;;5048430;28;20116;-63
2023/01/20 03:13:47;;;;;;;49.30;21.58;;;-0.80;99.90;;;;;;5046082;28;20148;-62
2023/01/20 03:16:16;;;;;;;49.70;20.75;;;-0.80;99.90;;;;;;5043547;28;20809;-63
2023/01/20 03:18:42;;;;;;;52.25;22.13;;;-0.80;99.90;;;;;;5042423;28;20239;-62
2023/01/20 03:21:10;;;;;;;52.92;21.52;;;-0.80;99.90;;;;;;5043702;28;20112;-63
2023/01/20 03:23:41;;;;;;;56.22;22.23;;;-0.80;99.90;;;;;;5049584;28;20552;-63
2023/01/20 03:26:09;;;;;;;49.78;21.73;;;-0.70;99.90;;;;;;5047770;28;20039;-64
2023/01/20 03:28:35;;;;;;;54.67;22.63;;;-0.70;99.90;;;;;;5047891;28;20102;-62
2023/01/20 03:31:10;;;;;;;52.33;21.50;;;-0.70;99.90;;;;;;5047505;28;20474;-64
2023/01/20 03:33:36;;;;;;;54.67;22.73;;;-0.80;99.90;;;;;;5048830;28;20441;-62
2023/01/20 03:36:02;;;;;;;54.38;22.27;;;-0.80;99.90;;;;;;5048792;28;20136;-62
2023/01/20 03:38:27;;;;;;;51.55;21.33;;;-0.90;99.90;;;;;;5049412;28;20029;-63
2023/01/20 03:41:03;;;;;;;53.70;21.85;;;-1.00;99.90;;;;;;5049435;28;20169;-62
2023/01/20 03:43:42;;;;;;;54.88;22.55;;;-1.00;99.90;;;;;;5049832;28;20040;-63
2023/01/20 03:46:17;;;;;;;54.67;22.70;;;-1.00;99.90;;;;;;5046911;28;20036;-63
2023/01/20 03:48:50;;;;;;;53.15;22.00;;;-1.00;99.90;;;;;;5046731;28;20041;-63
2023/01/20 03:51:24;;;;;;;54.10;21.65;;;-1.00;99.90;;;;;;5048857;28;20588;-62
2023/01/20 03:53:52;;;;;;;50.83;21.60;;;-1.00;99.90;;;;;;5046850;28;20033;-62
2023/01/20 03:56:28;;;;;;;53.45;22.30;;;-1.00;99.90;;;;;;5045928;28;20029;-63
2023/01/20 03:58:56;;;;;;;52.25;22.23;;;-1.00;99.90;;;;;;5048050;28;20044;-63
2023/01/20 04:01:27;;;;;;;56.72;22.60;;;-1.00;99.90;;;;;;5041864;28;20044;-62
2023/01/20 04:03:54;;;;;;;56.42;22.45;;;-1.00;99.90;;;;;;5039303;28;20029;-62
2023/01/20 04:06:24;;;;;;;56.50;23.17;;;-1.00;99.90;;;;;;5043746;28;20021;-64
2023/01/20 04:09:04;;;;;;;58.03;24.02;;;-1.00;99.90;;;;;;5059733;28;20025;-61
2023/01/20 04:11:29;;;;;;;53.05;23.25;;;-1.00;99.90;;;;;;5047581;28;20139;-63
2023/01/20 04:13:55;;;;;;;55.80;23.17;;;-1.00;99.90;;;;;;5044834;28;20112;-62
2023/01/20 04:16:23;;;;;;;60.88;25.20;;;-1.00;99.90;;;;;;5043081;28;20021;-62
2023/01/20 04:18:50;;;;;;;61.30;24.15;;;-1.00;99.90;;;;;;5041181;28;20075;-62
2023/01/20 04:21:25;;;;;;;63.17;24.25;;;-1.00;99.90;;;;;;5039372;28;20029;-62
2023/01/20 04:24:26;;;;;;;62.30;23.83;;;-1.00;99.90;;;;;;5047256;28;20474;-62
2023/01/20 04:26:52;;;;;;;59.10;23.60;;;-1.00;99.90;;;;;;5042324;28;20159;-62
2023/01/20 04:29:18;;;;;;;58.10;23.75;;;-0.90;99.90;;;;;;5037822;28;21065;-62
2023/01/20 04:31:43;;;;;;;61.22;23.52;;;-1.00;99.90;;;;;;5043975;28;20492;-62
2023/01/20 04:34:12;;;;;;;58.53;23.75;;;-1.00;99.90;;;;;;5039666;28;20037;-61
2023/01/20 04:36:37;;;;;;;56.50;22.55;;;-0.90;99.90;;;;;;5048539;28;20025;-62
2023/01/20 04:39:03;;;;;;;61.45;24.40;;;-0.90;99.90;;;;;;5050082;28;20043;-62
2023/01/20 04:41:29;;;;;;;59.22;23.58;;;-0.90;99.90;;;;;;5045505;28;20048;-62
2023/01/20 04:43:54;;;;;;;58.00;23.95;;;-0.90;99.90;;;;;;5046885;28;20067;-61
2023/01/20 04:46:20;;;;;;;60.05;24.08;;;-0.90;99.90;;;;;;5046998;28;20032;-62
2023/01/20 04:48:45;;;;;;;54.10;22.98;;;-0.80;99.90;;;;;;5048366;28;20056;-62
2023/01/20 04:51:11;;;;;;;55.72;23.02;;;-0.80;99.90;;;;;;5043796;28;20039;-61
2023/01/20 04:53:37;;;;;;;58.03;24.13;;;-0.90;99.90;;;;;;5043602;28;20032;-65
2023/01/20 04:56:03;;;;;;;56.17;23.13;;;-0.90;99.90;;;;;;5044515;28;20044;-62
2023/01/20 04:58:29;;;;;;;56.47;22.83;;;-0.80;99.90;;;;;;5026338;28;20041;-62
2023/01/20 05:00:54;;;;;;;61.67;23.35;;;-0.80;99.90;;;;;;5037448;28;20037;-62
2023/01/20 05:03:20;;;;;;;59.90;23.67;;;-0.80;99.90;;;;;;5046302;28;20029;-63
2023/01/20 05:05:55;;;;;;;62.00;23.08;;;-0.80;99.90;;;;;;5046268;28;20029;-65
2023/01/20 05:08:21;;;;;;;59.13;22.92;;;-0.80;99.90;;;;;;5044604;28;20058;-63
2023/01/20 05:10:47;;;;;;;53.20;22.98;;;-0.80;99.90;;;;;;5046347;28;20363;-63
2023/01/20 05:13:13;;;;;;;54.75;22.55;;;-0.80;99.90;;;;;;5041023;28;20160;-64
2023/01/20 05:15:39;;;;;;;54.97;22.65;;;-0.80;99.90;;;;;;5047137;28;20082;-64
2023/01/20 05:18:05;;;;;;;55.90;22.50;;;-0.80;99.90;;;;;;5046865;28;20037;-63
2023/01/20 05:20:30;;;;;;;54.53;22.35;;;-0.80;99.90;;;;;;5046951;28;20048;-63
2023/01/20 05:22:57;;;;;;;58.17;22.55;;;-0.70;99.90;;;;;;5047648;28;20037;-64
2023/01/20 05:25:23;;;;;;;54.22;23.15;;;-0.70;99.90;;;;;;5047299;28;20226;-64
2023/01/20 05:27:48;;;;;;;55.92;21.70;;;-0.70;99.90;;;;;;5045722;28;20029;-63
2023/01/20 05:30:14;;;;;;;55.65;22.10;;;-0.70;99.90;;;;;;5046737;28;20518;-63
2023/01/20 05:32:40;;;;;;;54.05;22.08;;;-0.70;99.90;;;;;;5039250;28;20040;-64
2023/01/20 05:35:06;;;;;;;57.78;21.95;;;-0.70;99.90;;;;;;5046325;28;20082;-64
2023/01/20 05:37:32;;;;;;;56.78;22.48;;;-0.70;99.90;;;;;;5046774;28;20029;-63
2023/01/20 05:39:57;;;;;;;51.92;22.33;;;-0.70;99.90;;;;;;5046712;28;20041;-64
2023/01/20 05:42:23;;;;;;;56.03;22.85;;;-0.70;99.90;;;;;;5041864;28;20045;-63
2023/01/20 05:44:48;;;;;;;56.83;21.95;;;-0.70;99.90;;;;;;5047619;28;20025;-64
2023/01/20 05:47:14;;;;;;;54.90;23.17;;;-0.80;99.90;;;;;;5047814;28;20045;-63
2023/01/20 05:49:40;;;;;;;62.17;23.33;;;-0.70;99.90;;;;;;5045786;28;20478;-65
2023/01/20 05:52:05;;;;;;;57.08;23.67;;;-0.80;99.90;;;;;;5047400;28;20113;-64
2023/01/20 05:54:31;;;;;;;59.88;23.45;;;-0.70;99.90;;;;;;5046611;28;20487;-64
2023/01/20 05:56:57;;;;;;;59.65;23.15;;;-0.70;99.90;;;;;;5036089;28;20030;-64
2023/01/20 05:59:23;;;;;;;60.05;23.45;;;-0.80;99.90;;;;;;5044419;28;20876;-64
2023/01/20 06:01:49;;;;;;;58.53;23.58;;;-0.80;99.90;;;;;;5043203;28;20034;-64
2023/01/20 06:04:14;;;;;;;64.85;22.95;;;-0.80;99.90;;;;;;5045624;28;20033;-64
2023/01/20 06:06:40;;;;;;;58.42;23.20;;;-0.70;99.90;;;;;;5047746;28;20033;-64
2023/01/20 06:09:06;;;;;;;60.38;23.45;;;-0.80;99.90;;;;;;5047112;28;20033;-64
2023/01/20 06:11:31;;;;;;;61.13;24.45;;;-0.80;99.90;;;;;;5045124;28;20052;-64
2023/01/20 06:13:57;;;;;;;60.65;23.65;;;-0.80;99.90;;;;;;5042489;28;20043;-65
2023/01/20 06:16:23;;;;;;;63.03;23.35;;;-0.70;99.90;;;;;;5045635;28;20108;-65
2023/01/20 06:18:48;;;;;;;65.28;23.95;;;-0.70;99.90;;;;;;5046247;28;20040;-65
2023/01/20 06:21:14;;;;;;;60.55;22.95;;;-0.70;99.90;;;;;;5049784;28;20036;-63
2023/01/20 06:23:40;;;;;;;55.72;22.52;;;-0.70;99.90;;;;;;5047308;28;20442;-64
2023/01/20 06:26:12;;;;;;;62.42;22.23;;;-0.70;99.90;;;;;;5049536;28;20029;-65
2023/01/20 06:28:38;;;;;;;55.78;22.67;;;-0.60;99.90;;;;;;5042563;28;20021;-65
2023/01/20 06:31:07;;;;;;;60.72;23.13;;;-0.60;99.90;;;;;;5049955;28;20111;-64
2023/01/20 06:33:34;;;;;;;58.78;22.45;;;-0.60;99.90;;;;;;5044705;28;20040;-65
2023/01/20 06:36:00;;;;;;;62.67;22.33;;;-0.60;99.90;;;;;;5049894;28;20128;-65
2023/01/20 06:38:28;;;;;;;59.83;23.02;;;-0.60;99.90;;;;;;5053657;28;20327;-65
2023/01/20 06:40:58;;;;;;;60.67;22.80;;;-0.60;99.90;;;;;;5050456;28;20052;-65
2023/01/20 06:43:24;;;;;;;;;;;-0.60;99.90;;;;;;5044264;28;20053;-65
2023/01/20 06:45:50;;;;;;;55.30;21.23;;;-0.60;99.90;;;;;;5049657;28;21103;-65
2023/01/20 06:48:15;;;;;;;57.45;22.08;;;-0.60;99.90;;;;;;5049544;28;20033;-64
2023/01/20 06:50:41;;;;;;;61.15;22.60;;;-0.60;99.90;;;;;;5048846;28;20043;-65
2023/01/20 06:53:07;;;;;;;64.25;23.33;;;-0.60;99.90;;;;;;5048281;28;20067;-64
2023/01/20 06:55:33;;;;;;;60.00;22.17;;;-0.60;99.90;;;;;;5054185;28;20060;-64
2023/01/20 06:57:58;;;;;;;58.22;22.30;;;-0.60;99.90;;;;;;5042630;28;20458;-64
2023/01/20 07:00:24;;;;;;;61.08;22.88;;;-0.70;99.90;;;;;;5049334;28;20029;-63
2023/01/20 07:02:50;;;;;;;57.17;21.52;;;-0.60;99.90;;;;;;5044157;28;20028;-64
2023/01/20 07:05:15;;;;;;;54.25;22.25;;;-0.60;99.90;;;;;;5047859;28;20025;-64
2023/01/20 07:07:44;;;;;;;58.50;22.70;;;-0.60;99.90;;;;;;5049771;28;20040;-64
2023/01/20 07:10:11;;;;;;;62.33;22.65;;;-0.60;99.90;;;;;;5047977;28;20045;-66
2023/01/20 07:12:37;;;;;;;55.72;21.80;;;-0.60;99.90;;;;;;5046005;28;20133;-64
2023/01/20 07:15:03;;;;;;;61.55;23.50;;;-0.60;99.90;;;;;;5048235;28;20456;-64
2023/01/20 07:17:28;;;;;;;57.53;23.05;;;-0.60;99.90;;;;;;5049045;28;20118;-66
2023/01/20 07:19:54;;;;;;;54.70;21.65;;;-0.50;99.90;;;;;;5045068;28;20440;-66
2023/01/20 07:22:20;;;;;;;57.28;22.83;;;-0.60;99.90;;;;;;5044840;28;20033;-65
2023/01/20 07:24:45;;;;;;;57.30;21.75;;;-0.60;99.90;;;;;;5047745;28;20100;-64
2023/01/20 07:27:11;;;;;;;64.82;22.83;;;-0.60;99.90;;;;;;5045525;28;20026;-64
2023/01/20 07:29:36;;;;;;;59.25;23.02;;;-0.60;99.90;;;;;;5052828;28;20299;-65
2023/01/20 07:32:03;;;;;;;56.22;22.17;;;-0.50;99.90;;;;;;5047885;28;20589;-65
2023/01/20 07:34:28;;;;;;;52.05;21.52;;;-0.50;99.90;;;;;;5042356;28;20162;-64
2023/01/20 07:36:54;;;;;;;61.13;22.67;;;-0.50;99.90;;;;;;5048594;28;20642;-64
2023/01/20 07:39:21;;;;;;;53.80;22.40;;;-0.40;99.90;;;;;;5048649;28;20090;-65
2023/01/20 07:41:49;;;;;;;62.42;23.52;;;-0.40;99.90;;;;;;5047562;28;20049;-64
2023/01/20 07:44:15;;;;;;;61.47;22.85;;;-0.40;99.90;;;;;;5045124;28;20028;-66
2023/01/20 07:46:41;;;;;;;56.58;22.60;;;-0.40;99.90;;;;;;5049254;28;20090;-65
2023/01/20 07:49:07;;;;;;;54.83;22.35;;;-0.50;99.90;;;;;;5047959;28;20048;-65
2023/01/20 07:51:33;;;;;;;59.75;22.10;;;-0.50;99.90;;;;;;5046072;28;20112;-64
2023/01/20 07:53:58;;;;;;;57.38;22.40;;;-0.50;99.90;;;;;;5047700;28;20052;-63
2023/01/20 07:56:26;;;;;;;62.42;23.25;;;-0.50;99.90;;;;;;5047402;28;20068;-65
2023/01/20 07:58:53;;;;;;;64.25;21.95;;;-0.50;99.90;;;;;;5042555;28;20440;-65
2023/01/20 08:01:27;;;;;;;62.33;22.23;;;-0.50;99.90;;;;;;5047828;28;20100;-64
2023/01/20 08:03:53;;;;;;;65.85;23.90;;;-0.40;99.90;;;;;;5042322;28;20080;-64
2023/01/20 08:06:21;;;;;;;62.13;23.10;;;-0.40;99.90;;;;;;5042030;28;20098;-64
2023/01/20 08:08:48;;;;;;;67.25;24.17;;;-0.40;99.90;;;;;;5046113;28;20021;-65
2023/01/20 08:11:15;;;;;;;65.13;22.83;;;-0.40;99.90;;;;;;5046873;28;20056;-66
2023/01/20 08:13:41;;;;;;;63.40;21.98;;;-0.40;99.90;;;;;;5043241;28;20024;-65
2023/01/20 08:16:10;;;;;;;59.05;22.30;;;-0.40;99.90;;;;;;5046464;28;20415;-64
2023/01/20 08:18:36;;;;;;;57.15;20.98;;;-0.40;99.90;;;;;;5046258;28;20035;-64
2023/01/20 08:21:05;;;;;;;61.35;21.60;;;-0.30;99.90;;;;;;5047217;28;20151;-65
2023/01/20 08:23:35;;;;;;;60.40;21.42;;;-0.30;99.90;;;;;;5046602;28;20053;-65
2023/01/20 08:26:05;;;;;;;60.67;22.27;;;-0.20;99.90;;;;;;5046945;28;20482;-63
2023/01/20 08:28:32;;;;;;;54.42;20.98;;;-0.20;99.90;;;;;;5038930;28;20041;-64
2023/01/20 08:31:09;;;;;;;58.10;20.95;;;-0.10;99.90;;;;;;5045232;28;20048;-64
2023/01/20 08:33:36;;;;;;;54.45;19.90;;;-0.10;99.90;;;;;;5042553;28;20029;-64
2023/01/20 08:36:07;;;;;;;56.03;20.40;;;-0.10;99.90;;;;;;5045645;28;20119;-63
2023/01/20 08:38:34;;;;;;;54.72;19.23;;;-0.10;99.90;;;;;;5043049;28;20694;-64
2023/01/20 08:41:00;;;;;;;51.70;18.70;;;0.00;99.90;;;;;;5047154;28;20037;-64
2023/01/20 08:43:26;;;;;;;49.08;18.67;;;0.00;99.90;;;;;;5045450;28;20045;-65
2023/01/20 08:46:05;;;;;;;49.25;18.23;;;0.10;99.90;;;;;;5046329;28;20032;-64
2023/01/20 08:48:31;;;;;;;55.17;17.67;;;0.10;99.90;;;;;;5043083;28;20483;-63
2023/01/20 08:50:57;;;;;;;49.85;18.50;;;0.20;99.90;;;;;;5046888;28;20238;-64
2023/01/20 08:53:23;;;;;;;52.90;18.40;;;0.30;99.90;;;;;;5045220;28;20036;-65
2023/01/20 08:55:59;;;;;;;47.17;17.48;;;0.40;99.90;;;;;;5048358;28;20032;-64
2023/01/20 08:58:26;;;;;;;55.15;18.50;;;0.50;99.90;;;;;;5041053;28;20099;-63
2023/01/20 09:00:52;;;;;;;45.10;16.33;;;0.50;99.90;;;;;;5036651;28;20809;-64
2023/01/20 09:03:18;;;;;;;39.67;15.00;;;0.50;99.90;;;;;;5044968;28;20029;-64
2023/01/20 09:05:43;;;;;;;45.35;15.88;;;0.50;99.90;;;;;;5040450;28;20033;-63
2023/01/20 09:08:09;;;;;;;42.45;15.27;;;0.60;99.90;;;;;;5044115;28;20793;-64
2023/01/20 09:10:35;;;;;;;42.97;15.55;;;0.50;99.90;;;;;;5042292;28;20098;-64
2023/01/20 09:13:00;;;;;;;44.72;15.07;;;0.50;99.90;;;;;;5041298;28;20080;-63
2023/01/20 09:15:26;;;;;;;43.10;15.02;;;0.50;99.90;;;;;;5043285;28;20116;-63
2023/01/20 09:17:52;;;;;;;41.78;15.32;;;0.50;99.90;;;;;;5043302;28;20063;-64
2023/01/20 09:20:18;;;;;;;40.72;15.18;;;0.50;99.90;;;;;;5047538;28;20429;-64
2023/01/20 09:22:43;;;;;;;38.65;14.20;;;0.60;99.90;;;;;;5046887;28;20025;-65
2023/01/20 09:25:09;;;;;;;38.28;14.90;;;0.70;99.90;;;;;;5044496;28;20766;-64
2023/01/20 09:27:35;;;;;;;42.67;15.18;;;0.80;99.90;;;;;;5044855;28;20036;-63
2023/01/20 09:30:02;;;;;;;37.95;13.93;;;0.90;99.90;;;;;;5040293;28;20037;-64
2023/01/20 09:32:28;;;;;;;36.97;14.40;;;0.90;99.90;;;;;;5045972;28;20445;-63
2023/01/20 09:34:55;;;;;;;41.05;13.98;;;1.00;99.90;;;;;;5043192;28;20060;-64
2023/01/20 09:46:35;;;;;;;28.02;9.32;;;1.50;99.90;;;;;;5041443;28;20178;-64
2023/01/20 09:55:20;;;;;;;29.00;11.73;;;1.80;99.90;;;;;;5044099;28;20500;-62
2023/01/20 09:57:57;;;;;;;28.20;10.20;;;1.80;99.90;;;;;;5038210;28;20828;-63
2023/01/20 10:00:26;;;;;;;33.75;12.07;;;1.60;99.90;;;;;;5041095;28;20033;-63
2023/01/20 10:03:01;;;;;;;28.20;9.77;;;1.30;99.90;;;;;;5042329;28;20092;-63
2023/01/20 10:05:32;;;;;;;28.00;10.63;;;1.20;99.90;;;;;;5044067;28;20028;-62
2023/01/20 10:08:07;;;;;;;26.67;10.25;;;1.10;99.90;;;;;;5046713;28;20040;-63
2023/01/20 10:10:36;;;;;;;34.10;11.25;;;1.10;99.90;;;;;;5047455;28;20478;-64
2023/01/20 10:13:28;;;;;;;27.95;9.73;;;1.20;99.90;;;;;;5048159;28;20052;-63
2023/01/20 10:15:55;;;;;;;29.02;11.23;;;1.20;99.90;;;;;;5046792;28;20620;-63
2023/01/20 10:18:34;;;;;;;28.52;10.90;;;1.10;99.90;;;;;;5048838;28;20051;-64
2023/01/20 10:21:12;;;;;;;25.40;10.05;;;1.20;99.90;;;;;;5043335;28;20036;-64
2023/01/20 10:24:01;;;;;;;31.40;10.88;;;1.20;99.90;;;;;;5043506;28;20354;-64
2023/01/20 10:26:41;;;;;;;26.70;10.57;;;1.10;99.90;;;;;;5049909;28;20040;-64
2023/01/20 10:29:12;;;;;;;30.00;11.55;;;1.00;99.90;;;;;;5042425;28;20037;-64
2023/01/20 10:31:50;;;;;;;26.63;9.93;;;1.10;99.90;;;;;;5048038;28;20116;-64
2023/01/20 10:34:19;;;;;;;29.05;11.70;;;1.20;99.90;;;;;;5045740;28;20036;-64
2023/01/20 10:36:55;;;;;;;31.40;12.32;;;1.30;99.90;;;;;;5049979;28;20029;-63
2023/01/20 10:39:53;;;;;;;26.38;9.98;;;1.50;99.90;;;;;;5041365;28;20537;-63
2023/01/20 10:42:19;;;;;;;21.70;8.05;;;1.60;99.90;;;;;;5032787;28;20044;-63
2023/01/20 10:44:48;;;;;;;16.80;6.80;;;1.60;99.90;;;;;;5048141;28;20029;-63
2023/01/20 10:47:45;;;;;;;19.95;7.88;;;1.60;99.90;;;;;;5049821;28;20040;-64
2023/01/20 10:50:23;;;;;;;16.50;6.38;;;1.70;99.90;;;;;;5039472;28;20037;-64
2023/01/20 10:53:03;;;;;;;20.73;6.60;;;1.80;99.90;;;;;;5048536;28;20029;-64
2023/01/20 10:55:57;;;;;;;14.88;5.70;;;2.00;99.90;;;;;;5047232;28;20477;-64
2023/01/20 10:58:28;;;;;;;16.80;6.90;;;2.20;99.90;;;;;;5040150;28;20311;-64
2023/01/20 11:00:54;;;;;;;15.77;6.25;;;2.20;99.90;;;;;;5041272;28;20033;-64
2023/01/20 11:03:21;;;;;;;17.23;6.97;;;2.20;99.90;;;;;;5043154;28;20020;-64
2023/01/20 11:05:49;;;;;;;17.17;7.15;;;2.20;99.90;;;;;;5039692;28;20059;-64
2023/01/20 11:08:15;;;;;;;18.27;7.13;;;2.20;99.90;;;;;;5045315;28;20071;-64
2023/01/20 11:10:41;;;;;;;17.40;6.40;;;2.10;99.90;;;;;;5048962;28;20273;-64
2023/01/20 11:13:10;;;;;;;15.27;5.93;;;2.10;99.90;;;;;;5047445;28;20025;-64
2023/01/20 11:15:49;;;;;;;12.23;4.97;;;2.10;99.90;;;;;;5047916;28;20017;-64
2023/01/20 11:18:15;;;;;;;12.52;4.95;;;2.10;99.90;;;;;;5048353;28;20385;-64
2023/01/20 11:20:57;;;;;;;12.45;5.35;;;2.00;99.90;;;;;;5048615;28;20033;-64
2023/01/20 11:23:41;;;;;;;15.65;6.90;;;1.80;99.90;;;;;;5048208;28;20044;-64
2023/01/20 11:26:16;;;;;;;20.17;7.35;;;1.70;99.90;;;;;;5044126;28;20029;-64
2023/01/20 11:28:51;;;;;;;18.40;6.97;;;1.70;99.90;;;;;;5042281;28;20928;-63
2023/01/20 11:31:17;;;;;;;22.10;8.35;;;1.60;99.90;;;;;;5044512;28;20052;-63
2023/01/20 11:34:17;;;;;;;24.45;9.65;;;1.60;99.90;;;;;;5048075;28;20657;-63
2023/01/20 11:36:43;;;;;;;25.33;10.13;;;1.60;99.90;;;;;;5045002;28;20609;-63
2023/01/20 11:39:25;;;;;;;29.15;10.07;;;1.50;99.90;;;;;;5047642;28;20036;-63
2023/01/20 11:42:16;;;;;;;23.67;9.20;;;1.50;99.90;;;;;;5047955;28;20572;-64
2023/01/20 11:44:50;;;;;;;28.80;9.55;;;1.50;99.90;;;;;;5047592;28;20571;-64
2023/01/20 11:47:25;;;;;;;23.70;9.35;;;1.50;99.90;;;;;;5048715;28;20623;-64
2023/01/20 11:50:08;;;;;;;23.85;8.52;;;1.50;99.90;;;;;;5048082;28;20033;-64
2023/01/20 11:52:41;;;;;;;25.13;9.07;;;1.40;99.90;;;;;;5047603;28;20040;-63
2023/01/20 11:55:08;;;;;;;22.88;8.82;;;1.50;99.90;;;;;;5048501;28;20042;-64
2023/01/20 11:57:36;;;;;;;22.88;9.30;;;1.50;99.90;;;;;;5048412;28;20029;-64
2023/01/20 12:00:03;;;;;;;24.20;9.27;;;1.50;99.90;;;;;;5047255;28;20086;-63
2023/01/20 12:02:29;;;;;;;22.42;8.90;;;1.60;99.90;;;;;;5048477;28;20056;-64
2023/01/20 12:05:21;;;;;;;22.15;9.10;;;1.60;99.90;;;;;;5047272;28;20033;-64
2023/01/20 12:07:50;;;;;;;21.45;8.02;;;1.60;99.90;;;;;;5044158;28;20020;-64
2023/01/20 12:10:17;;;;;;;20.13;7.95;;;1.70;99.90;;;;;;5040738;28;20489;-64
2023/01/20 12:12:59;;;;;;;19.70;7.47;;;1.80;99.90;;;;;;5047417;28;20040;-63
2023/01/20 12:15:31;;;;;;;18.95;7.85;;;1.60;99.90;;;;;;5047897;28;20040;-64
2023/01/20 12:18:54;;;;;;;19.33;7.47;;;1.50;99.90;;;;;;5043816;28;20692;-64
2023/01/20 12:21:23;;;;;;;17.92;7.30;;;1.50;99.90;;;;;;5007854;28;20060;-63
2023/01/20 12:23:54;;;;;;;19.67;7.90;;;1.60;99.90;;;;;;5047100;28;20827;-63
2023/01/20 12:26:22;;;;;;;19.02;7.90;;;1.70;99.90;;;;;;5047099;28;20110;-64
2023/01/20 12:28:58;;;;;;;20.95;7.90;;;1.90;99.90;;;;;;5046972;28;20028;-63
2023/01/20 12:31:24;;;;;;;18.58;7.60;;;2.20;99.90;;;;;;5048413;28;20044;-64
2023/01/20 12:34:12;;;;;;;21.98;7.93;;;2.50;99.90;;;;;;5046535;28;20028;-64
2023/01/20 12:37:17;;;;;;;22.45;7.93;;;2.80;99.90;;;;;;5038194;28;20028;-63
2023/01/20 12:39:46;;;;;;;22.02;8.00;;;3.10;99.90;;;;;;5034191;28;20040;-64
2023/01/20 12:42:49;;;;;;;18.73;7.78;;;3.30;99.90;;;;;;5042474;28;20066;-62
2023/01/20 12:45:27;;;;;;;20.30;8.07;;;3.00;99.90;;;;;;5043622;28;20084;-62
2023/01/20 12:48:03;;;;;;;17.27;7.22;;;2.70;99.90;;;;;;5047388;28;20036;-63
2023/01/20 12:50:43;;;;;;;21.08;8.38;;;2.30;99.90;;;;;;5044010;28;20040;-63
2023/01/20 12:53:29;;;;;;;24.63;8.38;;;2.10;99.90;;;;;;5041898;28;20108;-62
2023/01/20 12:56:12;;;;;;;23.75;9.35;;;2.00;99.90;;;;;;5045591;28;20083;-64
2023/01/20 12:59:03;;;;;;;21.23;9.10;;;2.00;99.90;;;;;;5044706;28;20036;-63
2023/01/20 13:01:55;;;;;;;20.08;7.65;;;1.90;99.90;;;;;;5040883;28;20107;-64
2023/01/20 13:05:02;;;;;;;25.15;7.55;;;1.90;99.90;;;;;;5040966;28;20025;-63